sensor_id;sensor_type;location;lat;lon;timestamp;P1;durP1;ratioP1;P2;durP2;ratioP2
72422;SDS011;71399;54.146;38.734;2023-12-20T00:00:16;4.00;;;2.30;;
72422;SDS011;71399;54.146;38.734;2023-12-20T00:02:43;5.35;;;2.42;;
72422;SDS011;71399;54.146;38.734;2023-12-20T00:05:13;4.65;;;2.35;;
72422;SDS011;71399;54.146;38.734;2023-12-20T00:07:40;5.90;;;2.97;;
72422;SDS011;71399;54.146;38.734;2023-12-20T00:10:06;5.60;;;2.70;;
72422;SDS011;71399;54.146;38.734;2023-12-20T00:12:33;3.63;;;2.08;;
72422;SDS011;71399;54.146;38.734;2023-12-20T00:14:59;4.88;;;2.78;;
72422;SDS011;71399;54.146;38.734;2023-12-20T00:17:25;4.63;;;2.40;;
72422;SDS011;71399;54.146;38.734;2023-12-20T00:19:52;5.00;;;2.58;;
72422;SDS011;71399;54.146;38.734;2023-12-20T00:22:18;6.10;;;2.63;;
72422;SDS011;71399;54.146;38.734;2023-12-20T00:24:44;5.82;;;2.58;;
72422;SDS011;71399;54.146;38.734;2023-12-20T00:27:10;3.55;;;1.98;;
72422;SDS011;71399;54.146;38.734;2023-12-20T00:29:37;4.15;;;2.83;;
72422;SDS011;71399;54.146;38.734;2023-12-20T00:32:03;3.75;;;2.33;;
72422;SDS011;71399;54.146;38.734;2023-12-20T00:34:30;4.07;;;2.45;;
72422;SDS011;71399;54.146;38.734;2023-12-20T00:36:56;4.60;;;2.65;;
72422;SDS011;71399;54.146;38.734;2023-12-20T00:39:22;5.32;;;2.63;;
72422;SDS011;71399;54.146;38.734;2023-12-20T00:41:49;9.63;;;3.58;;
72422;SDS011;71399;54.146;38.734;2023-12-20T00:44:16;5.03;;;2.85;;
72422;SDS011;71399;54.146;38.734;2023-12-20T00:46:42;6.13;;;2.83;;
72422;SDS011;71399;54.146;38.734;2023-12-20T00:49:08;6.22;;;3.08;;
72422;SDS011;71399;54.146;38.734;2023-12-20T00:51:35;5.70;;;3.17;;
72422;SDS011;71399;54.146;38.734;2023-12-20T00:54:01;5.55;;;3.00;;
72422;SDS011;71399;54.146;38.734;2023-12-20T00:56:28;5.35;;;3.20;;
72422;SDS011;71399;54.146;38.734;2023-12-20T00:58:54;4.88;;;2.70;;
72422;SDS011;71399;54.146;38.734;2023-12-20T01:01:21;7.30;;;2.90;;
72422;SDS011;71399;54.146;38.734;2023-12-20T01:03:47;5.07;;;3.05;;
72422;SDS011;71399;54.146;38.734;2023-12-20T01:06:17;5.78;;;2.97;;
72422;SDS011;71399;54.146;38.734;2023-12-20T01:08:43;6.63;;;3.10;;
72422;SDS011;71399;54.146;38.734;2023-12-20T01:11:09;5.75;;;3.40;;
72422;SDS011;71399;54.146;38.734;2023-12-20T01:13:35;4.78;;;3.05;;
72422;SDS011;71399;54.146;38.734;2023-12-20T01:16:02;5.50;;;3.08;;
72422;SDS011;71399;54.146;38.734;2023-12-20T01:18:29;6.15;;;3.22;;
72422;SDS011;71399;54.146;38.734;2023-12-20T01:20:55;5.75;;;3.00;;
72422;SDS011;71399;54.146;38.734;2023-12-20T01:23:22;5.47;;;3.22;;
72422;SDS011;71399;54.146;38.734;2023-12-20T01:25:48;7.72;;;3.22;;
72422;SDS011;71399;54.146;38.734;2023-12-20T01:28:14;5.65;;;3.33;;
72422;SDS011;71399;54.146;38.734;2023-12-20T01:30:41;5.97;;;3.10;;
72422;SDS011;71399;54.146;38.734;2023-12-20T01:33:07;6.60;;;3.60;;
72422;SDS011;71399;54.146;38.734;2023-12-20T01:35:33;7.82;;;3.35;;
72422;SDS011;71399;54.146;38.734;2023-12-20T01:37:59;4.45;;;2.88;;
72422;SDS011;71399;54.146;38.734;2023-12-20T01:40:25;5.88;;;3.10;;
72422;SDS011;71399;54.146;38.734;2023-12-20T01:42:59;4.68;;;2.88;;
72422;SDS011;71399;54.146;38.734;2023-12-20T01:45:26;7.28;;;3.13;;
72422;SDS011;71399;54.146;38.734;2023-12-20T01:47:54;7.10;;;3.38;;
72422;SDS011;71399;54.146;38.734;2023-12-20T01:50:22;6.43;;;3.38;;
72422;SDS011;71399;54.146;38.734;2023-12-20T01:52:49;7.78;;;3.30;;
72422;SDS011;71399;54.146;38.734;2023-12-20T01:55:18;6.53;;;3.45;;
72422;SDS011;71399;54.146;38.734;2023-12-20T01:57:45;8.40;;;3.40;;
72422;SDS011;71399;54.146;38.734;2023-12-20T02:00:13;8.35;;;4.07;;
72422;SDS011;71399;54.146;38.734;2023-12-20T02:02:40;7.35;;;3.38;;
72422;SDS011;71399;54.146;38.734;2023-12-20T02:05:07;7.35;;;3.72;;
72422;SDS011;71399;54.146;38.734;2023-12-20T02:07:34;10.13;;;3.83;;
72422;SDS011;71399;54.146;38.734;2023-12-20T02:10:01;8.68;;;3.90;;
72422;SDS011;71399;54.146;38.734;2023-12-20T02:12:30;9.25;;;3.97;;
72422;SDS011;71399;54.146;38.734;2023-12-20T02:14:56;8.55;;;3.95;;
72422;SDS011;71399;54.146;38.734;2023-12-20T02:17:23;8.10;;;4.28;;
72422;SDS011;71399;54.146;38.734;2023-12-20T02:19:49;8.85;;;4.20;;
72422;SDS011;71399;54.146;38.734;2023-12-20T02:22:16;7.97;;;3.35;;
72422;SDS011;71399;54.146;38.734;2023-12-20T02:24:42;7.75;;;3.10;;
72422;SDS011;71399;54.146;38.734;2023-12-20T02:27:08;7.97;;;4.00;;
72422;SDS011;71399;54.146;38.734;2023-12-20T02:29:35;7.88;;;4.22;;
72422;SDS011;71399;54.146;38.734;2023-12-20T02:32:02;8.65;;;3.67;;
72422;SDS011;71399;54.146;38.734;2023-12-20T02:34:28;10.35;;;4.03;;
72422;SDS011;71399;54.146;38.734;2023-12-20T02:36:55;9.00;;;4.10;;
72422;SDS011;71399;54.146;38.734;2023-12-20T02:39:21;8.25;;;4.18;;
72422;SDS011;71399;54.146;38.734;2023-12-20T02:41:48;9.13;;;3.60;;
72422;SDS011;71399;54.146;38.734;2023-12-20T02:44:15;9.35;;;4.28;;
72422;SDS011;71399;54.146;38.734;2023-12-20T02:46:41;7.82;;;3.90;;
72422;SDS011;71399;54.146;38.734;2023-12-20T02:49:07;8.20;;;4.38;;
72422;SDS011;71399;54.146;38.734;2023-12-20T02:51:33;8.48;;;4.10;;
72422;SDS011;71399;54.146;38.734;2023-12-20T02:53:59;8.88;;;4.35;;
72422;SDS011;71399;54.146;38.734;2023-12-20T02:56:26;9.45;;;3.85;;
72422;SDS011;71399;54.146;38.734;2023-12-20T02:58:52;8.65;;;4.53;;
72422;SDS011;71399;54.146;38.734;2023-12-20T03:01:18;9.23;;;4.60;;
72422;SDS011;71399;54.146;38.734;2023-12-20T03:03:45;10.60;;;5.07;;
72422;SDS011;71399;54.146;38.734;2023-12-20T03:06:11;9.38;;;4.80;;
72422;SDS011;71399;54.146;38.734;2023-12-20T03:08:43;13.52;;;5.20;;
72422;SDS011;71399;54.146;38.734;2023-12-20T03:11:09;12.05;;;4.30;;
72422;SDS011;71399;54.146;38.734;2023-12-20T03:13:35;10.60;;;4.72;;
72422;SDS011;71399;54.146;38.734;2023-12-20T03:16:07;9.85;;;4.75;;
72422;SDS011;71399;54.146;38.734;2023-12-20T03:18:34;9.93;;;5.22;;
72422;SDS011;71399;54.146;38.734;2023-12-20T03:21:00;11.02;;;5.15;;
72422;SDS011;71399;54.146;38.734;2023-12-20T03:23:28;11.40;;;5.75;;
72422;SDS011;71399;54.146;38.734;2023-12-20T03:25:56;10.68;;;5.55;;
72422;SDS011;71399;54.146;38.734;2023-12-20T03:28:22;12.35;;;5.63;;
72422;SDS011;71399;54.146;38.734;2023-12-20T03:30:49;12.95;;;5.55;;
72422;SDS011;71399;54.146;38.734;2023-12-20T03:33:15;15.13;;;5.72;;
72422;SDS011;71399;54.146;38.734;2023-12-20T03:35:41;13.85;;;5.45;;
72422;SDS011;71399;54.146;38.734;2023-12-20T03:38:08;11.27;;;5.07;;
72422;SDS011;71399;54.146;38.734;2023-12-20T03:40:35;15.40;;;6.28;;
72422;SDS011;71399;54.146;38.734;2023-12-20T03:43:01;12.23;;;5.53;;
72422;SDS011;71399;54.146;38.734;2023-12-20T03:45:27;14.30;;;6.60;;
72422;SDS011;71399;54.146;38.734;2023-12-20T03:47:53;14.05;;;5.53;;
72422;SDS011;71399;54.146;38.734;2023-12-20T03:50:22;11.80;;;6.05;;
72422;SDS011;71399;54.146;38.734;2023-12-20T03:52:49;14.45;;;6.05;;
72422;SDS011;71399;54.146;38.734;2023-12-20T03:55:15;17.60;;;6.50;;
72422;SDS011;71399;54.146;38.734;2023-12-20T03:57:42;14.02;;;6.40;;
72422;SDS011;71399;54.146;38.734;2023-12-20T04:00:08;16.70;;;6.30;;
72422;SDS011;71399;54.146;38.734;2023-12-20T04:02:38;13.85;;;6.43;;
72422;SDS011;71399;54.146;38.734;2023-12-20T04:05:06;13.35;;;6.65;;
72422;SDS011;71399;54.146;38.734;2023-12-20T04:07:33;18.00;;;6.55;;
72422;SDS011;71399;54.146;38.734;2023-12-20T04:09:59;17.95;;;7.15;;
72422;SDS011;71399;54.146;38.734;2023-12-20T04:12:26;17.58;;;6.53;;
72422;SDS011;71399;54.146;38.734;2023-12-20T04:14:53;14.95;;;6.20;;
72422;SDS011;71399;54.146;38.734;2023-12-20T04:17:20;14.32;;;5.57;;
72422;SDS011;71399;54.146;38.734;2023-12-20T04:19:48;15.27;;;5.97;;
72422;SDS011;71399;54.146;38.734;2023-12-20T04:22:15;16.52;;;6.80;;
72422;SDS011;71399;54.146;38.734;2023-12-20T04:24:43;16.02;;;6.93;;
72422;SDS011;71399;54.146;38.734;2023-12-20T04:27:09;17.73;;;7.00;;
72422;SDS011;71399;54.146;38.734;2023-12-20T04:29:35;13.23;;;6.18;;
72422;SDS011;71399;54.146;38.734;2023-12-20T04:32:02;14.60;;;6.55;;
72422;SDS011;71399;54.146;38.734;2023-12-20T04:34:29;15.60;;;6.75;;
72422;SDS011;71399;54.146;38.734;2023-12-20T04:36:55;16.95;;;7.35;;
72422;SDS011;71399;54.146;38.734;2023-12-20T04:39:21;12.80;;;6.38;;
72422;SDS011;71399;54.146;38.734;2023-12-20T04:41:47;18.05;;;6.70;;
72422;SDS011;71399;54.146;38.734;2023-12-20T04:44:15;15.35;;;6.70;;
72422;SDS011;71399;54.146;38.734;2023-12-20T04:46:41;14.13;;;6.85;;
72422;SDS011;71399;54.146;38.734;2023-12-20T04:49:07;19.95;;;6.88;;
72422;SDS011;71399;54.146;38.734;2023-12-20T04:51:34;19.30;;;6.68;;
72422;SDS011;71399;54.146;38.734;2023-12-20T04:54:01;15.00;;;6.32;;
72422;SDS011;71399;54.146;38.734;2023-12-20T04:56:28;15.23;;;6.05;;
72422;SDS011;71399;54.146;38.734;2023-12-20T04:58:54;14.88;;;6.80;;
72422;SDS011;71399;54.146;38.734;2023-12-20T05:01:21;12.55;;;6.50;;
72422;SDS011;71399;54.146;38.734;2023-12-20T05:03:47;14.75;;;6.20;;
72422;SDS011;71399;54.146;38.734;2023-12-20T05:06:13;14.40;;;6.03;;
72422;SDS011;71399;54.146;38.734;2023-12-20T05:08:40;15.63;;;5.88;;
72422;SDS011;71399;54.146;38.734;2023-12-20T05:11:06;14.48;;;6.35;;
72422;SDS011;71399;54.146;38.734;2023-12-20T05:13:33;12.63;;;5.43;;
72422;SDS011;71399;54.146;38.734;2023-12-20T05:15:59;15.63;;;5.47;;
72422;SDS011;71399;54.146;38.734;2023-12-20T05:18:25;11.68;;;6.25;;
72422;SDS011;71399;54.146;38.734;2023-12-20T05:20:52;15.27;;;6.78;;
72422;SDS011;71399;54.146;38.734;2023-12-20T05:23:18;15.52;;;5.50;;
72422;SDS011;71399;54.146;38.734;2023-12-20T05:25:46;11.48;;;5.50;;
72422;SDS011;71399;54.146;38.734;2023-12-20T05:28:12;14.13;;;6.28;;
72422;SDS011;71399;54.146;38.734;2023-12-20T05:30:39;14.10;;;6.57;;
72422;SDS011;71399;54.146;38.734;2023-12-20T05:33:05;14.50;;;6.10;;
72422;SDS011;71399;54.146;38.734;2023-12-20T05:35:32;15.52;;;6.63;;
72422;SDS011;71399;54.146;38.734;2023-12-20T05:37:58;12.32;;;6.10;;
72422;SDS011;71399;54.146;38.734;2023-12-20T05:40:24;13.88;;;5.57;;
72422;SDS011;71399;54.146;38.734;2023-12-20T05:42:50;11.35;;;5.65;;
72422;SDS011;71399;54.146;38.734;2023-12-20T05:45:17;15.90;;;6.68;;
72422;SDS011;71399;54.146;38.734;2023-12-20T05:47:43;13.57;;;6.13;;
72422;SDS011;71399;54.146;38.734;2023-12-20T05:50:09;14.30;;;5.65;;
72422;SDS011;71399;54.146;38.734;2023-12-20T05:52:35;12.25;;;5.50;;
72422;SDS011;71399;54.146;38.734;2023-12-20T05:55:02;11.93;;;5.22;;
72422;SDS011;71399;54.146;38.734;2023-12-20T05:57:32;12.65;;;5.88;;
72422;SDS011;71399;54.146;38.734;2023-12-20T05:59:59;12.20;;;5.38;;
72422;SDS011;71399;54.146;38.734;2023-12-20T06:02:25;10.93;;;5.22;;
72422;SDS011;71399;54.146;38.734;2023-12-20T06:04:52;14.13;;;5.97;;
72422;SDS011;71399;54.146;38.734;2023-12-20T06:07:19;13.18;;;5.68;;
72422;SDS011;71399;54.146;38.734;2023-12-20T06:09:45;14.02;;;5.90;;
72422;SDS011;71399;54.146;38.734;2023-12-20T06:12:11;11.05;;;5.82;;
72422;SDS011;71399;54.146;38.734;2023-12-20T06:14:38;16.23;;;5.22;;
72422;SDS011;71399;54.146;38.734;2023-12-20T06:17:04;14.63;;;6.30;;
72422;SDS011;71399;54.146;38.734;2023-12-20T06:19:30;13.48;;;5.93;;
72422;SDS011;71399;54.146;38.734;2023-12-20T06:21:56;13.82;;;5.45;;
72422;SDS011;71399;54.146;38.734;2023-12-20T06:24:23;13.38;;;5.85;;
72422;SDS011;71399;54.146;38.734;2023-12-20T06:26:54;13.15;;;5.90;;
72422;SDS011;71399;54.146;38.734;2023-12-20T06:29:21;14.35;;;5.93;;
72422;SDS011;71399;54.146;38.734;2023-12-20T06:31:47;16.08;;;5.93;;
72422;SDS011;71399;54.146;38.734;2023-12-20T06:34:14;14.02;;;6.00;;
72422;SDS011;71399;54.146;38.734;2023-12-20T06:36:40;12.93;;;4.80;;
72422;SDS011;71399;54.146;38.734;2023-12-20T06:39:06;9.50;;;4.68;;
72422;SDS011;71399;54.146;38.734;2023-12-20T06:41:34;11.90;;;4.57;;
72422;SDS011;71399;54.146;38.734;2023-12-20T06:44:01;12.15;;;5.57;;
72422;SDS011;71399;54.146;38.734;2023-12-20T06:46:27;13.63;;;5.10;;
72422;SDS011;71399;54.146;38.734;2023-12-20T06:48:53;11.55;;;4.97;;
72422;SDS011;71399;54.146;38.734;2023-12-20T06:51:20;10.02;;;4.50;;
72422;SDS011;71399;54.146;38.734;2023-12-20T06:53:46;10.88;;;5.18;;
72422;SDS011;71399;54.146;38.734;2023-12-20T06:56:12;9.15;;;4.35;;
72422;SDS011;71399;54.146;38.734;2023-12-20T06:58:39;7.75;;;4.07;;
72422;SDS011;71399;54.146;38.734;2023-12-20T07:01:05;6.97;;;3.85;;
72422;SDS011;71399;54.146;38.734;2023-12-20T07:03:36;7.35;;;3.92;;
72422;SDS011;71399;54.146;38.734;2023-12-20T07:06:02;8.80;;;3.97;;
72422;SDS011;71399;54.146;38.734;2023-12-20T07:08:29;6.03;;;3.30;;
72422;SDS011;71399;54.146;38.734;2023-12-20T07:10:55;7.53;;;3.53;;
72422;SDS011;71399;54.146;38.734;2023-12-20T07:13:22;7.32;;;3.47;;
72422;SDS011;71399;54.146;38.734;2023-12-20T07:15:48;7.70;;;3.65;;
72422;SDS011;71399;54.146;38.734;2023-12-20T07:18:14;8.23;;;3.45;;
72422;SDS011;71399;54.146;38.734;2023-12-20T07:20:41;7.88;;;3.35;;
72422;SDS011;71399;54.146;38.734;2023-12-20T07:23:07;6.85;;;3.60;;
72422;SDS011;71399;54.146;38.734;2023-12-20T07:25:33;6.15;;;3.33;;
72422;SDS011;71399;54.146;38.734;2023-12-20T07:27:59;6.78;;;3.33;;
72422;SDS011;71399;54.146;38.734;2023-12-20T07:30:26;6.55;;;3.13;;
72422;SDS011;71399;54.146;38.734;2023-12-20T07:32:52;5.80;;;3.40;;
72422;SDS011;71399;54.146;38.734;2023-12-20T07:35:19;5.85;;;3.42;;
72422;SDS011;71399;54.146;38.734;2023-12-20T07:37:45;6.07;;;2.95;;
72422;SDS011;71399;54.146;38.734;2023-12-20T07:40:11;4.95;;;2.78;;
72422;SDS011;71399;54.146;38.734;2023-12-20T07:42:38;6.90;;;2.88;;
72422;SDS011;71399;54.146;38.734;2023-12-20T07:45:04;5.00;;;2.83;;
72422;SDS011;71399;54.146;38.734;2023-12-20T07:47:32;7.15;;;2.90;;
72422;SDS011;71399;54.146;38.734;2023-12-20T07:49:58;5.03;;;2.50;;
72422;SDS011;71399;54.146;38.734;2023-12-20T07:52:24;5.65;;;2.80;;
72422;SDS011;71399;54.146;38.734;2023-12-20T07:54:52;4.40;;;2.45;;
72422;SDS011;71399;54.146;38.734;2023-12-20T07:57:18;5.90;;;2.90;;
72422;SDS011;71399;54.146;38.734;2023-12-20T07:59:44;5.68;;;3.00;;
72422;SDS011;71399;54.146;38.734;2023-12-20T08:02:10;8.00;;;5.07;;
72422;SDS011;71399;54.146;38.734;2023-12-20T08:04:37;5.15;;;2.50;;
72422;SDS011;71399;54.146;38.734;2023-12-20T08:07:04;5.28;;;2.47;;
72422;SDS011;71399;54.146;38.734;2023-12-20T08:09:30;5.55;;;2.75;;
72422;SDS011;71399;54.146;38.734;2023-12-20T08:11:57;4.65;;;2.25;;
72422;SDS011;71399;54.146;38.734;2023-12-20T08:14:25;5.05;;;2.53;;
72422;SDS011;71399;54.146;38.734;2023-12-20T08:16:51;3.85;;;2.25;;
72422;SDS011;71399;54.146;38.734;2023-12-20T08:19:17;5.38;;;2.33;;
72422;SDS011;71399;54.146;38.734;2023-12-20T08:21:44;3.60;;;1.90;;
72422;SDS011;71399;54.146;38.734;2023-12-20T08:24:10;5.03;;;2.53;;
72422;SDS011;71399;54.146;38.734;2023-12-20T08:26:36;3.78;;;2.20;;
72422;SDS011;71399;54.146;38.734;2023-12-20T08:29:03;3.03;;;1.90;;
72422;SDS011;71399;54.146;38.734;2023-12-20T08:31:29;5.88;;;2.28;;
72422;SDS011;71399;54.146;38.734;2023-12-20T08:33:55;4.85;;;2.30;;
72422;SDS011;71399;54.146;38.734;2023-12-20T08:36:22;4.05;;;1.95;;
72422;SDS011;71399;54.146;38.734;2023-12-20T08:38:49;3.58;;;2.10;;
72422;SDS011;71399;54.146;38.734;2023-12-20T08:41:16;4.38;;;2.17;;
72422;SDS011;71399;54.146;38.734;2023-12-20T08:43:43;3.53;;;1.80;;
72422;SDS011;71399;54.146;38.734;2023-12-20T08:46:10;3.80;;;2.10;;
72422;SDS011;71399;54.146;38.734;2023-12-20T08:48:40;3.05;;;1.95;;
72422;SDS011;71399;54.146;38.734;2023-12-20T08:51:06;4.25;;;2.13;;
72422;SDS011;71399;54.146;38.734;2023-12-20T08:53:34;3.95;;;1.92;;
72422;SDS011;71399;54.146;38.734;2023-12-20T08:56:00;3.65;;;2.00;;
72422;SDS011;71399;54.146;38.734;2023-12-20T08:58:27;4.28;;;2.10;;
72422;SDS011;71399;54.146;38.734;2023-12-20T09:00:54;3.63;;;2.10;;
72422;SDS011;71399;54.146;38.734;2023-12-20T09:03:21;3.28;;;2.00;;
72422;SDS011;71399;54.146;38.734;2023-12-20T09:05:47;3.70;;;1.83;;
72422;SDS011;71399;54.146;38.734;2023-12-20T09:08:13;4.32;;;2.00;;
72422;SDS011;71399;54.146;38.734;2023-12-20T09:10:39;4.32;;;2.03;;
72422;SDS011;71399;54.146;38.734;2023-12-20T09:13:06;4.25;;;2.20;;
72422;SDS011;71399;54.146;38.734;2023-12-20T09:15:32;3.92;;;2.15;;
72422;SDS011;71399;54.146;38.734;2023-12-20T09:18:00;4.07;;;2.05;;
72422;SDS011;71399;54.146;38.734;2023-12-20T09:20:26;3.40;;;1.92;;
72422;SDS011;71399;54.146;38.734;2023-12-20T09:22:53;4.70;;;2.35;;
72422;SDS011;71399;54.146;38.734;2023-12-20T09:25:19;3.95;;;2.10;;
72422;SDS011;71399;54.146;38.734;2023-12-20T09:27:45;3.30;;;1.92;;
72422;SDS011;71399;54.146;38.734;2023-12-20T09:30:12;3.78;;;2.10;;
72422;SDS011;71399;54.146;38.734;2023-12-20T09:32:38;2.90;;;1.85;;
72422;SDS011;71399;54.146;38.734;2023-12-20T09:35:05;4.10;;;2.08;;
72422;SDS011;71399;54.146;38.734;2023-12-20T09:37:32;5.00;;;2.38;;
72422;SDS011;71399;54.146;38.734;2023-12-20T09:39:59;3.80;;;2.13;;
72422;SDS011;71399;54.146;38.734;2023-12-20T09:42:29;4.50;;;1.98;;
72422;SDS011;71399;54.146;38.734;2023-12-20T09:45:20;4.85;;;2.05;;
72422;SDS011;71399;54.146;38.734;2023-12-20T09:47:53;2.88;;;1.73;;
72422;SDS011;71399;54.146;38.734;2023-12-20T09:50:23;5.32;;;2.15;;
72422;SDS011;71399;54.146;38.734;2023-12-20T09:52:51;5.20;;;1.95;;
72422;SDS011;71399;54.146;38.734;2023-12-20T09:55:19;4.15;;;2.22;;
72422;SDS011;71399;54.146;38.734;2023-12-20T09:57:46;4.18;;;2.30;;
72422;SDS011;71399;54.146;38.734;2023-12-20T10:00:13;6.75;;;2.47;;
72422;SDS011;71399;54.146;38.734;2023-12-20T10:02:45;4.97;;;2.00;;
72422;SDS011;71399;54.146;38.734;2023-12-20T10:05:20;4.50;;;2.40;;
72422;SDS011;71399;54.146;38.734;2023-12-20T10:07:56;3.50;;;2.40;;
72422;SDS011;71399;54.146;38.734;2023-12-20T10:10:23;4.40;;;2.30;;
72422;SDS011;71399;54.146;38.734;2023-12-20T10:15:29;4.75;;;2.30;;
72422;SDS011;71399;54.146;38.734;2023-12-20T10:17:56;3.25;;;2.17;;
72422;SDS011;71399;54.146;38.734;2023-12-20T10:20:23;4.70;;;2.10;;
72422;SDS011;71399;54.146;38.734;2023-12-20T10:22:49;3.00;;;1.90;;
72422;SDS011;71399;54.146;38.734;2023-12-20T10:25:15;3.80;;;2.05;;
72422;SDS011;71399;54.146;38.734;2023-12-20T10:27:44;5.35;;;2.13;;
72422;SDS011;71399;54.146;38.734;2023-12-20T10:30:10;4.03;;;2.08;;
72422;SDS011;71399;54.146;38.734;2023-12-20T10:32:37;3.38;;;1.85;;
72422;SDS011;71399;54.146;38.734;2023-12-20T10:35:03;2.85;;;1.73;;
72422;SDS011;71399;54.146;38.734;2023-12-20T10:37:31;5.00;;;2.05;;
72422;SDS011;71399;54.146;38.734;2023-12-20T10:39:57;3.55;;;1.95;;
72422;SDS011;71399;54.146;38.734;2023-12-20T10:42:30;2.97;;;1.95;;
72422;SDS011;71399;54.146;38.734;2023-12-20T10:44:58;3.50;;;2.00;;
72422;SDS011;71399;54.146;38.734;2023-12-20T10:47:26;3.38;;;1.92;;
72422;SDS011;71399;54.146;38.734;2023-12-20T10:49:53;3.17;;;1.90;;
72422;SDS011;71399;54.146;38.734;2023-12-20T10:52:23;3.10;;;1.75;;
72422;SDS011;71399;54.146;38.734;2023-12-20T10:54:52;3.15;;;1.77;;
72422;SDS011;71399;54.146;38.734;2023-12-20T10:57:19;4.28;;;1.80;;
72422;SDS011;71399;54.146;38.734;2023-12-20T10:59:47;5.72;;;2.10;;
72422;SDS011;71399;54.146;38.734;2023-12-20T11:02:18;3.45;;;1.90;;
72422;SDS011;71399;54.146;38.734;2023-12-20T11:10:26;2.38;;;1.40;;
72422;SDS011;71399;54.146;38.734;2023-12-20T11:13:08;3.60;;;1.75;;
72422;SDS011;71399;54.146;38.734;2023-12-20T11:15:42;2.75;;;1.67;;
72422;SDS011;71399;54.146;38.734;2023-12-20T11:18:09;3.10;;;1.70;;
72422;SDS011;71399;54.146;38.734;2023-12-20T11:20:39;3.45;;;1.60;;
72422;SDS011;71399;54.146;38.734;2023-12-20T11:23:07;3.67;;;1.80;;
72422;SDS011;71399;54.146;38.734;2023-12-20T11:25:47;2.75;;;1.30;;
72422;SDS011;71399;54.146;38.734;2023-12-20T11:28:24;2.55;;;1.50;;
72422;SDS011;71399;54.146;38.734;2023-12-20T11:30:53;4.55;;;1.52;;
72422;SDS011;71399;54.146;38.734;2023-12-20T11:33:21;3.38;;;1.95;;
72422;SDS011;71399;54.146;38.734;2023-12-20T11:35:49;2.75;;;1.63;;
72422;SDS011;71399;54.146;38.734;2023-12-20T11:38:16;2.53;;;1.40;;
72422;SDS011;71399;54.146;38.734;2023-12-20T11:40:43;3.83;;;2.05;;
72422;SDS011;71399;54.146;38.734;2023-12-20T11:43:09;4.45;;;1.88;;
72422;SDS011;71399;54.146;38.734;2023-12-20T11:45:36;4.90;;;1.75;;
72422;SDS011;71399;54.146;38.734;2023-12-20T11:48:02;3.10;;;1.73;;
72422;SDS011;71399;54.146;38.734;2023-12-20T11:50:29;2.97;;;1.63;;
72422;SDS011;71399;54.146;38.734;2023-12-20T11:52:56;4.82;;;1.70;;
72422;SDS011;71399;54.146;38.734;2023-12-20T11:55:23;3.13;;;1.60;;
72422;SDS011;71399;54.146;38.734;2023-12-20T11:57:50;4.57;;;1.70;;
72422;SDS011;71399;54.146;38.734;2023-12-20T12:00:17;4.25;;;1.73;;
72422;SDS011;71399;54.146;38.734;2023-12-20T12:02:54;5.97;;;1.88;;
72422;SDS011;71399;54.146;38.734;2023-12-20T12:05:22;3.38;;;2.20;;
72422;SDS011;71399;54.146;38.734;2023-12-20T12:07:49;2.38;;;1.55;;
72422;SDS011;71399;54.146;38.734;2023-12-20T12:10:15;2.63;;;1.63;;
72422;SDS011;71399;54.146;38.734;2023-12-20T12:12:41;2.78;;;1.70;;
72422;SDS011;71399;54.146;38.734;2023-12-20T12:15:08;3.50;;;1.70;;
72422;SDS011;71399;54.146;38.734;2023-12-20T12:17:35;2.95;;;1.80;;
72422;SDS011;71399;54.146;38.734;2023-12-20T12:20:02;2.33;;;1.58;;
72422;SDS011;71399;54.146;38.734;2023-12-20T12:22:30;2.85;;;1.63;;
72422;SDS011;71399;54.146;38.734;2023-12-20T12:24:58;3.70;;;1.83;;
72422;SDS011;71399;54.146;38.734;2023-12-20T12:27:26;4.53;;;2.00;;
72422;SDS011;71399;54.146;38.734;2023-12-20T12:30:00;2.95;;;1.98;;
72422;SDS011;71399;54.146;38.734;2023-12-20T12:32:31;3.17;;;1.58;;
72422;SDS011;71399;54.146;38.734;2023-12-20T12:34:58;3.63;;;1.90;;
72422;SDS011;71399;54.146;38.734;2023-12-20T12:37:25;3.30;;;1.92;;
72422;SDS011;71399;54.146;38.734;2023-12-20T12:39:55;2.88;;;1.60;;
72422;SDS011;71399;54.146;38.734;2023-12-20T12:42:23;3.53;;;1.85;;
72422;SDS011;71399;54.146;38.734;2023-12-20T12:44:54;3.30;;;1.83;;
72422;SDS011;71399;54.146;38.734;2023-12-20T12:47:22;3.63;;;1.90;;
72422;SDS011;71399;54.146;38.734;2023-12-20T12:49:49;2.72;;;1.80;;
72422;SDS011;71399;54.146;38.734;2023-12-20T12:52:17;3.45;;;2.00;;
72422;SDS011;71399;54.146;38.734;2023-12-20T12:54:43;2.78;;;1.80;;
72422;SDS011;71399;54.146;38.734;2023-12-20T12:57:11;2.70;;;1.77;;
72422;SDS011;71399;54.146;38.734;2023-12-20T12:59:37;3.03;;;1.90;;
72422;SDS011;71399;54.146;38.734;2023-12-20T13:02:04;2.50;;;1.50;;
72422;SDS011;71399;54.146;38.734;2023-12-20T13:04:30;2.78;;;1.90;;
72422;SDS011;71399;54.146;38.734;2023-12-20T13:06:56;3.50;;;2.20;;
72422;SDS011;71399;54.146;38.734;2023-12-20T13:09:23;4.80;;;2.13;;
72422;SDS011;71399;54.146;38.734;2023-12-20T13:11:49;4.07;;;2.15;;
72422;SDS011;71399;54.146;38.734;2023-12-20T13:14:15;3.88;;;2.35;;
72422;SDS011;71399;54.146;38.734;2023-12-20T13:16:42;3.78;;;2.20;;
72422;SDS011;71399;54.146;38.734;2023-12-20T13:19:10;3.45;;;2.03;;
72422;SDS011;71399;54.146;38.734;2023-12-20T13:21:37;2.88;;;1.90;;
72422;SDS011;71399;54.146;38.734;2023-12-20T13:24:03;3.30;;;1.92;;
72422;SDS011;71399;54.146;38.734;2023-12-20T13:26:30;5.13;;;2.33;;
72422;SDS011;71399;54.146;38.734;2023-12-20T13:28:56;4.03;;;1.80;;
72422;SDS011;71399;54.146;38.734;2023-12-20T13:31:22;3.70;;;1.95;;
72422;SDS011;71399;54.146;38.734;2023-12-20T13:33:49;2.95;;;1.77;;
72422;SDS011;71399;54.146;38.734;2023-12-20T13:36:15;5.63;;;2.40;;
72422;SDS011;71399;54.146;38.734;2023-12-20T13:38:41;2.90;;;1.70;;
72422;SDS011;71399;54.146;38.734;2023-12-20T13:41:08;3.28;;;1.83;;
72422;SDS011;71399;54.146;38.734;2023-12-20T13:43:35;3.10;;;2.03;;
72422;SDS011;71399;54.146;38.734;2023-12-20T13:46:01;3.25;;;1.90;;
72422;SDS011;71399;54.146;38.734;2023-12-20T13:48:27;4.97;;;2.40;;
72422;SDS011;71399;54.146;38.734;2023-12-20T13:50:54;3.05;;;2.03;;
72422;SDS011;71399;54.146;38.734;2023-12-20T13:53:20;4.85;;;2.00;;
72422;SDS011;71399;54.146;38.734;2023-12-20T13:55:46;3.97;;;2.45;;
72422;SDS011;71399;54.146;38.734;2023-12-20T13:58:13;3.80;;;2.10;;
72422;SDS011;71399;54.146;38.734;2023-12-20T14:00:40;3.35;;;1.90;;
72422;SDS011;71399;54.146;38.734;2023-12-20T14:03:06;2.72;;;1.73;;
72422;SDS011;71399;54.146;38.734;2023-12-20T14:05:33;3.42;;;2.00;;
72422;SDS011;71399;54.146;38.734;2023-12-20T14:07:59;3.13;;;2.03;;
72422;SDS011;71399;54.146;38.734;2023-12-20T14:10:26;3.22;;;2.10;;
72422;SDS011;71399;54.146;38.734;2023-12-20T14:12:53;3.25;;;1.75;;
72422;SDS011;71399;54.146;38.734;2023-12-20T14:15:20;3.25;;;2.22;;
72422;SDS011;71399;54.146;38.734;2023-12-20T14:17:47;4.07;;;2.35;;
72422;SDS011;71399;54.146;38.734;2023-12-20T14:20:13;4.07;;;2.40;;
72422;SDS011;71399;54.146;38.734;2023-12-20T14:22:39;3.45;;;2.13;;
72422;SDS011;71399;54.146;38.734;2023-12-20T14:25:13;6.03;;;2.03;;
72422;SDS011;71399;54.146;38.734;2023-12-20T14:27:40;3.65;;;2.58;;
72422;SDS011;71399;54.146;38.734;2023-12-20T14:30:09;3.38;;;2.30;;
72422;SDS011;71399;54.146;38.734;2023-12-20T14:32:36;3.78;;;2.20;;
72422;SDS011;71399;54.146;38.734;2023-12-20T14:35:05;3.47;;;2.00;;
72422;SDS011;71399;54.146;38.734;2023-12-20T14:37:34;3.33;;;2.13;;